Hauptseite
METAR-TAF:

METAR-TAF

Flughäfen :

Al-Hasa, Saudi-Arabien

Breite: 25-18N, Länge: 049-29E, Höhe: 179 m

Beobachtung

Neuester Wetterbericht von vor 49 Minuten, um 01:00 UTC
Wind 9 kt aus Nord/Nordwest
Temperatur 31°C
Luftfeuchtigkeit 14%
Luftdruck 1004 hPa
Sichtweite 10 km oder mehr
keine Wolken unter 1500 m und keine Kumulonimbus oder Gewitterwolken

METAR: OEAH 290100Z 34009KT CAVOK 31/00 Q1004 NOSIG

Zeit: 04:49 (01:49 UTC)

Prognose

Neuester Wetterbericht von vor 3 Stunden und 49 Minuten, um 22:00 UTC
Gültige Prognose vom 29 um 00 UTC bis 30 um 06 UTC
Wind 8 kt aus Nordwest
Sichtweite 10 km oder mehr
keine Wolken unter 1500 m und keine Kumulonimbus oder Gewitterwolken
Zeitweise
vom 29 um 04 UTC bis 29 um 15 UTC
Wind 22 kt aus Nord
Sichtweite: 5000 m
Staubtreiben,

TAF: OEAH 282200Z 2900/3006 32008KT CAVOK TEMPO 2904/2915 35022KT 5000 BLDU

Wetterbeobachtungen und Prognosen von mehr als 4000 Flughäfen (METAR und TAF Bericht).

Die verfügbaren Stationen werden durch gelbe und rote Markierungen auf der Karte dargestellt.

Führen Sie die Maus auf sie, um den Namen der Station zu sehen.

Darauf klicken, um die Beobachtung von Wetterbeobachtungen und Prognosen zu sehen.

Um die Karte zu ändern : klicken Sie auf den grünen Tasten mit einem schwarzen Kreuz Zum Vergrößern, auf den grünen Button mit einem Gedankenstrich zu verkleinern, oder auf die grünen Pfeile für benachbarte Karten.


METAR-TAF: